< Typhoon 196524 1965 Season Typhoon 196526 >
Typhoon 196525 (VIRGINIA)
General InformationTrack Information on Google Maps || Disaster Info.ResourceGoogle EarthGE AnimationAtom FeedGeoJSON
Detalied Best Track (Time Zone = UTC)
Year Month Day Hour Lat. Long. Pressure (hPa) Wind (kt) Class Image Chart
1965 9 12 18 13.0 149.0 1004 0 2 -- Chart
1965 9 13 00 13.6 148.0 1002 0 2 -- Chart
1965 9 13 06 14.5 147.1 1000 0 2 -- Chart
1965 9 13 12 15.4 146.3 1000 0 2 -- Chart
1965 9 13 18 16.5 145.5 998 0 2 -- Chart
1965 9 14 00 17.5 144.8 996 0 2 -- Chart
1965 9 14 06 19.1 144.1 990 0 9 -- Chart
1965 9 14 12 20.3 143.7 990 0 9 -- Chart
1965 9 14 18 21.5 143.1 990 0 9 -- Chart
1965 9 15 00 23.0 142.5 990 0 9 -- Chart
1965 9 15 06 25.2 142.2 990 0 9 -- Chart
1965 9 15 12 27.5 142.1 990 0 9 -- Chart
1965 9 15 18 29.9 142.0 985 0 9 -- Chart
1965 9 16 00 32.1 142.1 985 0 9 -- Chart
1965 9 16 06 34.5 143.5 980 0 9 -- Chart
1965 9 16 12 36.8 145.4 980 0 9 -- Chart
1965 9 16 18 38.6 148.0 985 0 9 -- Chart
1965 9 17 00 40.0 150.5 985 0 9 -- Chart
1965 9 17 06 41.0 154.0 988 0 6 -- Chart
1965 9 17 12 41.0 157.0 990 0 6 -- Chart
1965 9 17 18 39.0 161.0 992 0 6 -- Chart
1965 9 18 00 37.5 164.4 996 0 6 -- Chart
1965 9 18 06 36.0 166.0 1000 0 6 -- Chart
1965 9 18 12 35.0 167.0 1002 0 6 -- Chart
1965 9 18 18 34.0 169.0 1004 0 6 -- Chart
1965 9 19 00 31.2 173.0 1006 0 6 -- Chart
1965 9 19 06 30.0 176.0 1006 0 6 -- Chart
1965 9 19 12 29.0 178.0 1004 0 6 -- Chart
1965 9 19 18 29.0 181.0 1002 0 6 -- Chart
Japan Meteorological Agency Best Track Data | Correction Date : 1989-06-01
< Typhoon 196524 1965 Season Typhoon 196526 >

Help